createdAt,value
2016-10-17T00:00:07.836Z,25.23
2016-10-17T00:00:22.269Z,25.2
2016-10-17T00:00:36.624Z,25.15
2016-10-17T00:00:51.104Z,25.2
2016-10-17T00:01:05.491Z,25.12
2016-10-17T00:01:19.838Z,25.2
2016-10-17T00:01:34.237Z,25.17
2016-10-17T00:01:48.659Z,25.2
2016-10-17T00:02:03.029Z,25.23
2016-10-17T00:02:17.363Z,25.2
2016-10-17T00:02:31.747Z,25.15
2016-10-17T00:02:46.119Z,25.17
2016-10-17T00:03:00.784Z,25.17
2016-10-17T00:03:15.202Z,25.22
2016-10-17T00:03:29.562Z,25.2
2016-10-17T00:03:43.971Z,25.2
2016-10-17T00:03:58.421Z,25.19
2016-10-17T00:04:12.766Z,25.23
2016-10-17T00:04:27.130Z,25.19
2016-10-17T00:04:41.555Z,25.34
2016-10-17T00:04:55.934Z,25.17
2016-10-17T00:05:10.282Z,25.14
2016-10-17T00:05:24.686Z,25.33
2016-10-17T00:05:39.094Z,25.19
2016-10-17T00:05:53.460Z,25.19
2016-10-17T00:06:07.813Z,25.19
2016-10-17T00:06:22.158Z,25.15
2016-10-17T00:06:36.492Z,25.17
2016-10-17T00:06:50.878Z,25.17
2016-10-17T00:07:05.242Z,25.19
2016-10-17T00:07:19.636Z,25.22
2016-10-17T00:07:34.065Z,25.15
2016-10-17T00:07:48.435Z,25.19
2016-10-17T00:08:02.753Z,25.23
2016-10-17T00:08:17.171Z,25.23
2016-10-17T00:08:31.590Z,25.23
2016-10-17T00:08:46.025Z,25.22
2016-10-17T00:09:00.404Z,25.2
2016-10-17T00:09:14.755Z,25.17
2016-10-17T00:09:29.089Z,25.17
2016-10-17T00:09:43.538Z,25.2
2016-10-17T00:09:57.888Z,25.2
2016-10-17T00:10:12.272Z,25.19
2016-10-17T00:10:26.657Z,25.23
2016-10-17T00:10:41.038Z,25.22
2016-10-17T00:10:55.407Z,25.23
2016-10-17T00:11:09.818Z,25.23
2016-10-17T00:11:24.368Z,25.2
2016-10-17T00:11:38.729Z,25.2
2016-10-17T00:11:53.138Z,25.19
2016-10-17T00:12:07.471Z,25.11
2016-10-17T00:12:21.966Z,25.12
2016-10-17T00:12:36.351Z,25.09
2016-10-17T00:12:50.724Z,25.17
2016-10-17T00:13:05.080Z,25.15
2016-10-17T00:13:19.423Z,25.14
2016-10-17T00:13:33.743Z,25.14
2016-10-17T00:13:48.106Z,25.14
2016-10-17T00:14:02.453Z,25.12
2016-10-17T00:14:16.827Z,25.14
2016-10-17T00:14:31.265Z,25.12
2016-10-17T00:14:45.684Z,25.11
2016-10-17T00:15:00.100Z,25.14
2016-10-17T00:15:14.482Z,25.17
2016-10-17T00:15:28.843Z,25.04
2016-10-17T00:15:43.250Z,25.07
2016-10-17T00:15:57.661Z,25.09
2016-10-17T00:16:12.114Z,25.04
2016-10-17T00:16:26.587Z,25.08
2016-10-17T00:16:40.952Z,25.01
2016-10-17T00:16:55.296Z,25.09
2016-10-17T00:17:09.707Z,25.05
2016-10-17T00:17:24.096Z,25.05
2016-10-17T00:17:38.473Z,25.07
2016-10-17T00:17:52.887Z,25.01
2016-10-17T00:18:08.019Z,25
2016-10-17T00:18:22.435Z,24.97
2016-10-17T00:18:36.770Z,24.97
2016-10-17T00:18:51.083Z,24.94
2016-10-17T00:19:05.508Z,24.96
2016-10-17T00:19:19.893Z,24.97
2016-10-17T00:19:34.274Z,24.93
2016-10-17T00:19:48.678Z,24.94
2016-10-17T00:20:03.102Z,24.96
2016-10-17T00:20:17.477Z,24.96
2016-10-17T00:20:31.860Z,24.96
2016-10-17T00:20:46.257Z,24.9
2016-10-17T00:21:00.657Z,24.92
2016-10-17T00:21:15.051Z,24.92
2016-10-17T00:21:29.412Z,24.96
2016-10-17T00:21:43.739Z,24.94
2016-10-17T00:21:58.121Z,24.96
2016-10-17T00:22:12.548Z,24.86
2016-10-17T00:22:26.929Z,24.92
2016-10-17T00:22:41.295Z,24.85
2016-10-17T00:22:55.756Z,24.9
2016-10-17T00:23:10.179Z,24.8
2016-10-17T00:23:24.553Z,24.78
2016-10-17T00:23:38.912Z,24.85
2016-10-17T00:23:53.262Z,24.82
2016-10-17T00:24:07.722Z,24.89
2016-10-17T00:24:22.039Z,24.8
2016-10-17T00:24:36.382Z,24.85
2016-10-17T00:24:50.666Z,24.85
2016-10-17T00:25:05.006Z,24.9
2016-10-17T00:25:19.390Z,24.9
2016-10-17T00:25:33.830Z,24.83
2016-10-17T00:25:48.237Z,24.86
2016-10-17T00:26:02.645Z,24.86
2016-10-17T00:26:17.679Z,24.85
2016-10-17T00:26:32.086Z,24.8
2016-10-17T00:26:46.451Z,24.87
2016-10-17T00:27:00.849Z,24.77
2016-10-17T00:27:15.281Z,24.77
2016-10-17T00:27:29.659Z,24.83
2016-10-17T00:27:44.038Z,24.78
2016-10-17T00:27:58.443Z,24.77
2016-10-17T00:28:12.839Z,24.8
2016-10-17T00:28:27.231Z,24.83
2016-10-17T00:28:41.601Z,24.87
2016-10-17T00:28:55.939Z,24.74
2016-10-17T00:29:10.312Z,24.83
2016-10-17T00:29:24.647Z,24.83
2016-10-17T00:29:39.037Z,24.83
2016-10-17T00:29:53.404Z,24.78
2016-10-17T00:30:07.907Z,24.71
2016-10-17T00:30:22.294Z,24.75
2016-10-17T00:30:36.737Z,24.74
2016-10-17T00:30:51.107Z,24.71
2016-10-17T00:31:05.484Z,24.77
2016-10-17T00:31:19.851Z,24.86
2016-10-17T00:31:34.238Z,24.86
2016-10-17T00:31:48.636Z,24.7
2016-10-17T00:32:03.067Z,24.78
2016-10-17T00:32:17.361Z,24.8
2016-10-17T00:32:31.745Z,24.85
2016-10-17T00:32:46.195Z,24.77
2016-10-17T00:33:00.555Z,24.86
2016-10-17T00:33:15.214Z,24.78
2016-10-17T00:33:29.593Z,24.77
2016-10-17T00:33:44.040Z,24.77
2016-10-17T00:33:58.396Z,24.74
2016-10-17T00:34:12.829Z,24.71
2016-10-17T00:34:27.177Z,24.82
2016-10-17T00:34:41.478Z,24.82
2016-10-17T00:34:55.867Z,24.71
2016-10-17T00:35:10.320Z,24.74
2016-10-17T00:35:24.708Z,24.78
2016-10-17T00:35:39.096Z,24.83
2016-10-17T00:35:53.528Z,24.83
2016-10-17T00:36:07.898Z,24.71
2016-10-17T00:36:22.227Z,24.71
2016-10-17T00:36:36.616Z,24.74
2016-10-17T00:36:50.984Z,24.74
2016-10-17T00:37:05.466Z,24.78
2016-10-17T00:37:19.833Z,24.75
2016-10-17T00:37:34.295Z,24.71
2016-10-17T00:37:48.625Z,24.71
2016-10-17T00:38:03.030Z,24.71
2016-10-17T00:38:17.359Z,24.74
2016-10-17T00:38:31.810Z,24.7
2016-10-17T00:38:46.157Z,24.8
2016-10-17T00:39:00.601Z,24.74
2016-10-17T00:39:14.975Z,24.75
2016-10-17T00:39:29.304Z,24.74
2016-10-17T00:39:43.709Z,24.78
2016-10-17T00:39:58.061Z,24.75
2016-10-17T00:40:12.458Z,24.77
2016-10-17T00:40:26.861Z,24.89
2016-10-17T00:40:41.263Z,24.74
2016-10-17T00:40:55.620Z,24.74
2016-10-17T00:41:10.095Z,24.85
2016-10-17T00:41:24.493Z,24.78
2016-10-17T00:41:38.906Z,24.75
2016-10-17T00:41:53.361Z,24.86
2016-10-17T00:42:07.736Z,24.86
2016-10-17T00:42:22.138Z,24.85
2016-10-17T00:42:36.491Z,24.71
2016-10-17T00:42:50.953Z,24.82
2016-10-17T00:43:05.326Z,24.89
2016-10-17T00:43:19.731Z,24.8
2016-10-17T00:43:34.130Z,24.77
2016-10-17T00:43:48.490Z,24.83
2016-10-17T00:44:02.811Z,24.83
2016-10-17T00:44:17.223Z,24.86
2016-10-17T00:44:31.645Z,24.74
2016-10-17T00:44:46.043Z,24.83
2016-10-17T00:45:00.465Z,24.77
2016-10-17T00:45:14.866Z,24.86
2016-10-17T00:45:29.296Z,24.83
2016-10-17T00:45:43.689Z,24.71
2016-10-17T00:45:58.138Z,24.83
2016-10-17T00:46:12.625Z,24.82
2016-10-17T00:46:26.933Z,24.89
2016-10-17T00:46:41.309Z,24.75
2016-10-17T00:46:55.713Z,24.71
2016-10-17T00:47:10.138Z,24.75
2016-10-17T00:47:24.517Z,24.7
2016-10-17T00:47:38.903Z,24.71
2016-10-17T00:47:53.335Z,24.71
2016-10-17T00:48:07.723Z,24.7
2016-10-17T00:48:22.592Z,24.77
2016-10-17T00:48:37.057Z,24.74
2016-10-17T00:48:51.495Z,24.66
2016-10-17T00:49:05.824Z,24.66
2016-10-17T00:49:20.174Z,24.59
2016-10-17T00:49:34.576Z,24.67
2016-10-17T00:49:48.909Z,24.67
2016-10-17T00:50:03.330Z,24.61
2016-10-17T00:50:17.790Z,24.59
2016-10-17T00:50:32.262Z,24.64
2016-10-17T00:50:46.631Z,24.67
2016-10-17T00:51:01.017Z,24.59
2016-10-17T00:51:15.448Z,24.54
2016-10-17T00:51:29.784Z,24.56
2016-10-17T00:51:44.155Z,24.58
2016-10-17T00:51:58.573Z,24.52
2016-10-17T00:52:12.988Z,24.63
2016-10-17T00:52:27.431Z,24.64
2016-10-17T00:52:41.868Z,24.52
2016-10-17T00:52:56.337Z,24.54
2016-10-17T00:53:10.732Z,24.51
2016-10-17T00:53:25.161Z,24.49
2016-10-17T00:53:39.480Z,24.48
2016-10-17T00:53:53.871Z,24.51
2016-10-17T00:54:08.283Z,24.44
2016-10-17T00:54:22.658Z,24.49
2016-10-17T00:54:37.034Z,24.48
2016-10-17T00:54:51.418Z,24.45
2016-10-17T00:55:05.852Z,24.49
2016-10-17T00:55:20.241Z,24.48
2016-10-17T00:55:34.609Z,24.45
2016-10-17T00:55:49.048Z,24.45
2016-10-17T00:56:03.385Z,24.44
2016-10-17T00:56:17.755Z,24.48
2016-10-17T00:56:32.195Z,24.46
2016-10-17T00:56:46.645Z,24.51
2016-10-17T00:57:01.028Z,24.46
2016-10-17T00:57:15.388Z,24.42
2016-10-17T00:57:29.830Z,24.48
2016-10-17T00:57:44.184Z,24.45
2016-10-17T00:57:58.519Z,24.45
2016-10-17T00:58:13.137Z,24.45
2016-10-17T00:58:27.628Z,24.45
2016-10-17T00:58:41.942Z,24.54
2016-10-17T00:58:56.392Z,24.48
2016-10-17T00:59:10.763Z,24.49
2016-10-17T00:59:25.205Z,24.52
2016-10-17T00:59:39.671Z,24.63
2016-10-17T00:59:54.053Z,24.61
2016-10-17T01:00:08.428Z,24.59
2016-10-17T01:00:22.753Z,24.59
2016-10-17T01:00:37.143Z,24.61
2016-10-17T01:00:51.620Z,24.63
2016-10-17T01:01:06.017Z,24.59
2016-10-17T01:01:20.429Z,24.54
2016-10-17T01:01:34.848Z,24.54
2016-10-17T01:01:49.266Z,24.51
2016-10-17T01:02:03.714Z,24.49
2016-10-17T01:02:18.103Z,24.49
2016-10-17T01:02:32.462Z,24.42
2016-10-17T01:02:46.886Z,24.45
2016-10-17T01:03:01.253Z,24.42
2016-10-17T01:03:15.706Z,24.45
2016-10-17T01:03:30.466Z,24.45
2016-10-17T01:03:44.852Z,24.4
2016-10-17T01:03:59.207Z,24.39
2016-10-17T01:04:13.622Z,24.48
2016-10-17T01:04:27.989Z,24.39
2016-10-17T01:04:42.339Z,24.37
2016-10-17T01:04:56.730Z,24.46
2016-10-17T01:05:11.148Z,24.48
2016-10-17T01:05:25.606Z,24.45
2016-10-17T01:05:40.020Z,24.51
2016-10-17T01:05:54.408Z,24.42
2016-10-17T01:06:08.754Z,24.46
2016-10-17T01:06:23.139Z,24.45
2016-10-17T01:06:37.545Z,24.48
2016-10-17T01:06:51.914Z,24.44
2016-10-17T01:07:06.270Z,24.46
2016-10-17T01:07:20.703Z,24.45
2016-10-17T01:07:35.071Z,24.46
2016-10-17T01:07:49.436Z,24.48
2016-10-17T01:08:03.757Z,24.46
2016-10-17T01:08:18.123Z,24.46
2016-10-17T01:08:32.483Z,24.44
2016-10-17T01:08:46.864Z,24.37
2016-10-17T01:09:01.186Z,24.42
2016-10-17T01:09:15.650Z,24.34
2016-10-17T01:09:30.020Z,24.34
2016-10-17T01:09:44.463Z,24.34
2016-10-17T01:09:58.889Z,24.39
2016-10-17T01:10:13.355Z,24.37
2016-10-17T01:10:27.659Z,24.39
2016-10-17T01:10:42.073Z,24.4
2016-10-17T01:10:56.503Z,24.42
2016-10-17T01:11:10.956Z,24.29
2016-10-17T01:11:25.341Z,24.29
2016-10-17T01:11:39.720Z,24.29
2016-10-17T01:11:54.086Z,24.32
2016-10-17T01:12:08.494Z,24.24
2016-10-17T01:12:22.865Z,24.27
2016-10-17T01:12:37.192Z,24.22
2016-10-17T01:12:51.508Z,24.33
2016-10-17T01:13:05.908Z,24.24
2016-10-17T01:13:20.259Z,24.36
2016-10-17T01:13:34.672Z,24.37
2016-10-17T01:13:49.082Z,24.37
2016-10-17T01:14:03.480Z,24.24
2016-10-17T01:14:17.882Z,24.39
2016-10-17T01:14:32.334Z,24.32
2016-10-17T01:14:46.709Z,24.3
2016-10-17T01:15:01.238Z,24.4
2016-10-17T01:15:15.600Z,24.32
2016-10-17T01:15:29.945Z,24.3
2016-10-17T01:15:44.319Z,24.29
2016-10-17T01:15:58.793Z,24.32
2016-10-17T01:16:13.246Z,24.27
2016-10-17T01:16:27.646Z,24.29
2016-10-17T01:16:42.042Z,24.34
2016-10-17T01:16:56.465Z,24.37
2016-10-17T01:17:10.884Z,24.3
2016-10-17T01:17:25.231Z,24.36
2016-10-17T01:17:39.659Z,24.27
2016-10-17T01:17:54.106Z,24.29
2016-10-17T01:18:08.504Z,24.26
2016-10-17T01:18:22.893Z,24.32
2016-10-17T01:18:37.759Z,24.26
2016-10-17T01:18:52.212Z,24.21
2016-10-17T01:19:06.618Z,24.33
2016-10-17T01:19:20.972Z,24.19
2016-10-17T01:19:35.395Z,24.36
2016-10-17T01:19:49.852Z,24.26
2016-10-17T01:20:04.247Z,24.27
2016-10-17T01:20:18.703Z,24.27
2016-10-17T01:20:33.120Z,24.29
2016-10-17T01:20:47.562Z,24.19
2016-10-17T01:21:01.990Z,24.18
2016-10-17T01:21:16.395Z,24.21
2016-10-17T01:21:30.804Z,24.24
2016-10-17T01:21:45.215Z,24.24
2016-10-17T01:21:59.678Z,24.26
2016-10-17T01:22:14.104Z,24.17
2016-10-17T01:22:28.539Z,24.24
2016-10-17T01:22:43.003Z,24.21
2016-10-17T01:22:57.348Z,24.21
2016-10-17T01:23:11.800Z,24.07
2016-10-17T01:23:26.202Z,24.17
2016-10-17T01:23:40.578Z,24.17
2016-10-17T01:23:54.973Z,24.15
2016-10-17T01:24:09.371Z,24.19
2016-10-17T01:24:23.804Z,24.14
2016-10-17T01:24:38.247Z,24.08
2016-10-17T01:24:52.697Z,24.09
2016-10-17T01:25:07.037Z,24.14
2016-10-17T01:25:21.465Z,24.19
2016-10-17T01:25:35.836Z,24.19
2016-10-17T01:25:50.322Z,24.12
2016-10-17T01:26:04.727Z,24.22
2016-10-17T01:26:19.113Z,24.17
2016-10-17T01:26:33.451Z,24.22
2016-10-17T01:26:47.849Z,24.29
2016-10-17T01:27:02.304Z,24.29
2016-10-17T01:27:16.774Z,24.24
2016-10-17T01:27:31.153Z,24.24
2016-10-17T01:27:45.535Z,24.21
2016-10-17T01:27:59.964Z,24.29
2016-10-17T01:28:14.365Z,24.24
2016-10-17T01:28:28.798Z,24.32
2016-10-17T01:28:43.218Z,24.24
2016-10-17T01:28:57.609Z,24.22
2016-10-17T01:29:11.972Z,24.26
2016-10-17T01:29:26.315Z,24.29
2016-10-17T01:29:40.713Z,24.26
2016-10-17T01:29:55.091Z,24.27
2016-10-17T01:30:09.490Z,24.22
2016-10-17T01:30:23.877Z,24.26
2016-10-17T01:30:38.252Z,24.3
2016-10-17T01:30:52.620Z,24.22
2016-10-17T01:31:07.029Z,24.37
2016-10-17T01:31:21.411Z,24.18
2016-10-17T01:31:35.723Z,24.22
2016-10-17T01:31:50.113Z,24.3
2016-10-17T01:32:04.435Z,24.22
2016-10-17T01:32:18.900Z,24.33
2016-10-17T01:32:33.229Z,24.24
2016-10-17T01:32:47.674Z,24.18
2016-10-17T01:33:02.117Z,24.24
2016-10-17T01:33:16.537Z,24.21
2016-10-17T01:33:30.899Z,24.24
2016-10-17T01:33:45.609Z,24.27
2016-10-17T01:34:00.024Z,24.14
2016-10-17T01:34:14.423Z,24.26
2016-10-17T01:34:28.828Z,24.21
2016-10-17T01:34:43.292Z,24.22
2016-10-17T01:34:57.632Z,24.14
2016-10-17T01:35:12.090Z,24.22
2016-10-17T01:35:26.494Z,24.14
2016-10-17T01:35:40.957Z,24.19
2016-10-17T01:35:55.292Z,24.09
2016-10-17T01:36:09.727Z,24.14
2016-10-17T01:36:24.088Z,24.09
2016-10-17T01:36:38.402Z,24.09
2016-10-17T01:36:52.774Z,24.11
2016-10-17T01:37:07.170Z,24.07
2016-10-17T01:37:21.560Z,24.08
2016-10-17T01:37:35.927Z,24.09
2016-10-17T01:37:50.382Z,24.08
2016-10-17T01:38:04.691Z,24.02
2016-10-17T01:38:19.132Z,24.08
2016-10-17T01:38:33.520Z,24.02
2016-10-17T01:38:47.897Z,24.08
2016-10-17T01:39:02.333Z,24.03
2016-10-17T01:39:16.774Z,24.03
2016-10-17T01:39:31.155Z,23.94
2016-10-17T01:39:45.467Z,24
2016-10-17T01:39:59.875Z,24
2016-10-17T01:40:14.231Z,23.92
2016-10-17T01:40:28.624Z,23.9
2016-10-17T01:40:43.031Z,23.99
2016-10-17T01:40:57.371Z,24.02
2016-10-17T01:41:11.778Z,23.94
2016-10-17T01:41:26.205Z,23.99
2016-10-17T01:41:40.634Z,23.97
2016-10-17T01:41:55.028Z,23.99
2016-10-17T01:42:09.441Z,23.99
2016-10-17T01:42:23.856Z,23.94
2016-10-17T01:42:38.269Z,23.93
2016-10-17T01:42:52.661Z,23.97
2016-10-17T01:43:06.984Z,23.94
2016-10-17T01:43:21.348Z,23.89
2016-10-17T01:43:35.822Z,23.89
2016-10-17T01:43:50.320Z,23.85
2016-10-17T01:44:04.718Z,23.94
2016-10-17T01:44:19.159Z,23.93
2016-10-17T01:44:33.544Z,23.85
2016-10-17T01:44:47.959Z,23.75
2016-10-17T01:45:02.388Z,23.81
2016-10-17T01:45:16.756Z,23.87
2016-10-17T01:45:31.146Z,23.9
2016-10-17T01:45:45.484Z,23.87
2016-10-17T01:45:59.918Z,23.84
2016-10-17T01:46:14.316Z,23.84
2016-10-17T01:46:28.656Z,23.89
2016-10-17T01:46:43.037Z,23.89
2016-10-17T01:46:57.391Z,23.9
2016-10-17T01:47:11.761Z,23.9
2016-10-17T01:47:26.279Z,23.89
2016-10-17T01:47:40.756Z,23.87
2016-10-17T01:47:55.086Z,23.89
2016-10-17T01:48:09.542Z,23.85
2016-10-17T01:48:24.002Z,23.82
2016-10-17T01:48:38.399Z,23.75
2016-10-17T01:48:53.242Z,23.74
2016-10-17T01:49:07.618Z,23.82
2016-10-17T01:49:21.935Z,23.82
2016-10-17T01:49:36.353Z,23.71
2016-10-17T01:49:50.729Z,23.7
2016-10-17T01:50:05.156Z,23.74
2016-10-17T01:50:19.538Z,23.64
2016-10-17T01:50:33.967Z,23.66
2016-10-17T01:50:48.274Z,23.7
2016-10-17T01:51:02.687Z,23.64
2016-10-17T01:51:17.072Z,23.55
2016-10-17T01:51:31.455Z,23.66
2016-10-17T01:51:45.850Z,23.64
2016-10-17T01:52:00.258Z,23.57
2016-10-17T01:52:14.708Z,23.6
2016-10-17T01:52:29.017Z,23.5
2016-10-17T01:52:43.416Z,23.53
2016-10-17T01:52:57.827Z,23.55
2016-10-17T01:53:12.302Z,23.44
2016-10-17T01:53:26.655Z,23.52
2016-10-17T01:53:41.056Z,23.48
2016-10-17T01:53:55.480Z,23.56
2016-10-17T01:54:09.851Z,23.57
2016-10-17T01:54:24.207Z,23.55
2016-10-17T01:54:38.594Z,23.53
2016-10-17T01:54:52.984Z,23.47
2016-10-17T01:55:07.377Z,23.55
2016-10-17T01:55:21.759Z,23.59
2016-10-17T01:55:36.187Z,23.56
2016-10-17T01:55:50.542Z,23.59
2016-10-17T01:56:05.036Z,23.59
2016-10-17T01:56:19.503Z,23.62
2016-10-17T01:56:33.991Z,23.59
2016-10-17T01:56:48.378Z,23.56
2016-10-17T01:57:02.762Z,23.67
2016-10-17T01:57:17.196Z,23.64
2016-10-17T01:57:31.582Z,23.57
2016-10-17T01:57:46.015Z,23.66
2016-10-17T01:58:00.373Z,23.72
2016-10-17T01:58:14.752Z,23.6
2016-10-17T01:58:29.119Z,23.67
2016-10-17T01:58:43.552Z,23.7
2016-10-17T01:58:57.967Z,23.78
2016-10-17T01:59:12.365Z,23.67
2016-10-17T01:59:26.736Z,23.72
2016-10-17T01:59:41.070Z,23.71
2016-10-17T01:59:55.501Z,23.77
2016-10-17T02:00:09.907Z,23.78
2016-10-17T02:00:24.303Z,23.78
2016-10-17T02:00:38.675Z,23.81
2016-10-17T02:00:53.080Z,23.75
2016-10-17T02:01:07.455Z,23.84
2016-10-17T02:01:21.811Z,23.77
2016-10-17T02:01:36.160Z,23.78
2016-10-17T02:01:50.489Z,23.78
2016-10-17T02:02:04.815Z,23.72
2016-10-17T02:02:19.199Z,23.72
2016-10-17T02:02:33.640Z,23.71
2016-10-17T02:02:48.065Z,23.74
2016-10-17T02:03:02.374Z,23.74
2016-10-17T02:03:16.726Z,23.67
2016-10-17T02:03:31.139Z,23.74
2016-10-17T02:03:45.734Z,23.74
2016-10-17T02:04:00.601Z,23.72
2016-10-17T02:04:15.066Z,23.74
2016-10-17T02:04:29.420Z,23.77
2016-10-17T02:04:43.838Z,23.72
2016-10-17T02:04:58.211Z,23.75
2016-10-17T02:05:12.554Z,23.67
2016-10-17T02:05:26.957Z,23.78
2016-10-17T02:05:41.348Z,23.72
2016-10-17T02:05:55.757Z,23.74
2016-10-17T02:06:10.139Z,23.7
2016-10-17T02:06:24.503Z,23.72
2016-10-17T02:06:38.953Z,23.72
2016-10-17T02:06:53.369Z,23.74
2016-10-17T02:07:07.770Z,23.72
2016-10-17T02:07:22.073Z,23.74
2016-10-17T02:07:36.407Z,23.72
2016-10-17T02:07:50.805Z,23.75
2016-10-17T02:08:05.190Z,23.71
2016-10-17T02:08:19.579Z,23.75
2016-10-17T02:08:33.999Z,23.71
2016-10-17T02:08:48.462Z,23.75
2016-10-17T02:09:02.891Z,23.77
2016-10-17T02:09:17.311Z,23.75
2016-10-17T02:09:31.693Z,23.71
2016-10-17T02:09:46.093Z,23.71
2016-10-17T02:10:00.458Z,23.64
2016-10-17T02:10:14.822Z,23.78
2016-10-17T02:10:29.252Z,23.71
2016-10-17T02:10:43.704Z,23.67
2016-10-17T02:10:58.077Z,23.7
2016-10-17T02:11:12.457Z,23.74
2016-10-17T02:11:26.863Z,23.7
2016-10-17T02:11:41.209Z,23.67
2016-10-17T02:11:55.637Z,23.74
2016-10-17T02:12:09.984Z,23.79
2016-10-17T02:12:24.382Z,23.77
2016-10-17T02:12:38.767Z,23.75
2016-10-17T02:12:53.142Z,23.75
2016-10-17T02:13:07.566Z,23.67
2016-10-17T02:13:21.907Z,23.75
2016-10-17T02:13:36.314Z,23.71
2016-10-17T02:13:50.697Z,23.67
2016-10-17T02:14:05.105Z,23.77
2016-10-17T02:14:19.465Z,23.75
2016-10-17T02:14:33.847Z,23.71
2016-10-17T02:14:48.318Z,23.75
2016-10-17T02:15:02.689Z,23.72
2016-10-17T02:15:17.023Z,23.71
2016-10-17T02:15:31.411Z,23.81
2016-10-17T02:15:45.876Z,23.74
2016-10-17T02:16:00.257Z,23.79
2016-10-17T02:16:14.716Z,23.75
2016-10-17T02:16:29.079Z,23.7
2016-10-17T02:16:43.500Z,23.75
2016-10-17T02:16:57.888Z,23.71
2016-10-17T02:17:12.275Z,23.75
2016-10-17T02:17:26.635Z,23.75
2016-10-17T02:17:41.055Z,23.63
2016-10-17T02:17:55.478Z,23.64
2016-10-17T02:18:09.866Z,23.59
2016-10-17T02:18:24.223Z,23.63
2016-10-17T02:18:38.641Z,23.66
2016-10-17T02:18:52.992Z,23.63
2016-10-17T02:19:08.695Z,23.66
2016-10-17T02:19:23.087Z,23.55
2016-10-17T02:19:37.537Z,23.66
2016-10-17T02:19:51.953Z,23.57
2016-10-17T02:20:06.398Z,23.57
2016-10-17T02:20:20.817Z,23.57
2016-10-17T02:20:35.317Z,23.56
2016-10-17T02:20:49.716Z,23.7
2016-10-17T02:21:04.061Z,23.56
2016-10-17T02:21:18.466Z,23.67
2016-10-17T02:21:32.881Z,23.7
2016-10-17T02:21:47.302Z,23.63
2016-10-17T02:22:01.669Z,23.64
2016-10-17T02:22:16.129Z,23.7
2016-10-17T02:22:30.481Z,23.63
2016-10-17T02:22:44.852Z,23.62
2016-10-17T02:22:59.342Z,23.6
2016-10-17T02:23:13.733Z,23.66
2016-10-17T02:23:28.129Z,23.63
2016-10-17T02:23:42.475Z,23.56
2016-10-17T02:23:56.919Z,23.57
2016-10-17T02:24:11.296Z,23.62
2016-10-17T02:24:25.703Z,23.64
2016-10-17T02:24:40.054Z,23.52
2016-10-17T02:24:54.383Z,23.5
2016-10-17T02:25:08.833Z,23.48
2016-10-17T02:25:23.192Z,23.57
2016-10-17T02:25:37.573Z,23.53
2016-10-17T02:25:51.939Z,23.56
2016-10-17T02:26:06.328Z,23.42
2016-10-17T02:26:20.720Z,23.5
2016-10-17T02:26:35.028Z,23.41
2016-10-17T02:26:49.403Z,23.56
2016-10-17T02:27:03.833Z,23.47
2016-10-17T02:27:18.206Z,23.42
2016-10-17T02:27:32.580Z,23.45
2016-10-17T02:27:47.089Z,23.45
2016-10-17T02:28:01.473Z,23.47
2016-10-17T02:28:15.895Z,23.4
2016-10-17T02:28:30.246Z,23.48
2016-10-17T02:28:44.629Z,23.44
2016-10-17T02:28:59.069Z,23.52
2016-10-17T02:29:13.421Z,23.44
2016-10-17T02:29:27.773Z,23.52
2016-10-17T02:29:42.208Z,23.45
2016-10-17T02:29:56.646Z,23.37
2016-10-17T02:30:11.037Z,23.37
2016-10-17T02:30:25.418Z,23.41
2016-10-17T02:30:39.780Z,23.35
2016-10-17T02:30:54.213Z,23.37
2016-10-17T02:31:08.627Z,23.34
2016-10-17T02:31:23.030Z,23.26
2016-10-17T02:31:37.417Z,23.34
2016-10-17T02:31:51.788Z,23.26
2016-10-17T02:32:06.214Z,23.25
2016-10-17T02:32:20.628Z,23.21
2016-10-17T02:32:35.044Z,23.25
2016-10-17T02:32:49.416Z,23.19
2016-10-17T02:33:03.815Z,23.16
2016-10-17T02:33:18.179Z,23.16
2016-10-17T02:33:32.529Z,23.19
2016-10-17T02:33:46.852Z,23.21
2016-10-17T02:34:01.246Z,23.04
2016-10-17T02:34:15.969Z,23.03
2016-10-17T02:34:30.323Z,23.1
2016-10-17T02:34:44.794Z,23.06
2016-10-17T02:34:59.165Z,23.04
2016-10-17T02:35:13.545Z,23.07
2016-10-17T02:35:27.968Z,23.1
2016-10-17T02:35:42.308Z,23.01
2016-10-17T02:35:56.635Z,23.06
2016-10-17T02:36:11.059Z,23.12
2016-10-17T02:36:25.415Z,22.96
2016-10-17T02:36:39.832Z,23.01
2016-10-17T02:36:54.201Z,23.09
2016-10-17T02:37:08.547Z,23.04
2016-10-17T02:37:22.932Z,23.04
2016-10-17T02:37:37.348Z,23.1
2016-10-17T02:37:51.703Z,23.04
2016-10-17T02:38:06.048Z,23.09
2016-10-17T02:38:20.411Z,23.12
2016-10-17T02:38:34.700Z,23.01
2016-10-17T02:38:49.127Z,23.09
2016-10-17T02:39:03.571Z,23.1
2016-10-17T02:39:17.948Z,23.15
2016-10-17T02:39:32.285Z,23.01
2016-10-17T02:39:46.631Z,23.1
2016-10-17T02:40:01.004Z,23.07
2016-10-17T02:40:15.460Z,23.1
2016-10-17T02:40:29.822Z,23.09
2016-10-17T02:40:44.207Z,23.07
2016-10-17T02:40:58.614Z,23.1
2016-10-17T02:41:13.026Z,23.06
2016-10-17T02:41:27.415Z,23.09
2016-10-17T02:41:41.824Z,23.07
2016-10-17T02:41:56.208Z,23.12
2016-10-17T02:42:10.606Z,23.12
2016-10-17T02:42:25.012Z,23.01
2016-10-17T02:42:39.507Z,23
2016-10-17T02:42:53.936Z,23.03
2016-10-17T02:43:08.344Z,22.99
2016-10-17T02:43:22.790Z,22.94
2016-10-17T02:43:37.248Z,23.06
2016-10-17T02:43:51.625Z,22.96
2016-10-17T02:44:06.062Z,23.04
2016-10-17T02:44:20.440Z,22.99
2016-10-17T02:44:34.781Z,23.03
2016-10-17T02:44:49.190Z,22.99
2016-10-17T02:45:03.632Z,23
2016-10-17T02:45:18.069Z,23.03
2016-10-17T02:45:32.455Z,23.01
2016-10-17T02:45:46.851Z,22.99
2016-10-17T02:46:01.296Z,22.97
2016-10-17T02:46:15.739Z,23.03
2016-10-17T02:46:30.059Z,22.94
2016-10-17T02:46:44.412Z,23.06
2016-10-17T02:46:58.863Z,23.06
2016-10-17T02:47:13.242Z,23.01
2016-10-17T02:47:27.627Z,23.03
2016-10-17T02:47:42.012Z,22.99
2016-10-17T02:47:56.378Z,22.99
2016-10-17T02:48:10.717Z,22.96
2016-10-17T02:48:25.091Z,23.01
2016-10-17T02:48:39.424Z,23.03
2016-10-17T02:48:53.803Z,23.06
2016-10-17T02:49:08.227Z,22.96
2016-10-17T02:49:23.160Z,22.94
2016-10-17T02:49:37.483Z,23.04
2016-10-17T02:49:51.858Z,22.96
2016-10-17T02:50:06.305Z,22.94
2016-10-17T02:50:20.745Z,22.99
2016-10-17T02:50:35.131Z,23.03
2016-10-17T02:50:49.544Z,23.04
2016-10-17T02:51:03.925Z,22.94
2016-10-17T02:51:18.326Z,23
2016-10-17T02:51:32.731Z,22.91
2016-10-17T02:51:47.099Z,22.89
2016-10-17T02:52:01.483Z,22.97
2016-10-17T02:52:15.884Z,22.88
2016-10-17T02:52:30.292Z,22.96
2016-10-17T02:52:44.693Z,22.86
2016-10-17T02:52:59.135Z,22.97
2016-10-17T02:53:13.546Z,22.94
2016-10-17T02:53:27.954Z,22.89
2016-10-17T02:53:42.388Z,22.97
2016-10-17T02:53:56.826Z,22.94
2016-10-17T02:54:11.244Z,22.82
2016-10-17T02:54:25.647Z,22.89
2016-10-17T02:54:40.082Z,22.88
2016-10-17T02:54:54.473Z,22.96
2016-10-17T02:55:08.884Z,22.91
2016-10-17T02:55:23.276Z,22.96
2016-10-17T02:55:37.667Z,22.91
2016-10-17T02:55:52.094Z,22.85
2016-10-17T02:56:06.493Z,22.91
2016-10-17T02:56:20.909Z,22.92
2016-10-17T02:56:35.322Z,22.85
2016-10-17T02:56:49.699Z,22.85
2016-10-17T02:57:04.065Z,22.84
2016-10-17T02:57:18.523Z,22.82
2016-10-17T02:57:32.903Z,22.86
2016-10-17T02:57:47.249Z,22.85
2016-10-17T02:58:01.651Z,22.84
2016-10-17T02:58:16.047Z,22.86
2016-10-17T02:58:30.429Z,22.82
2016-10-17T02:58:44.816Z,22.81
2016-10-17T02:58:59.200Z,22.85
2016-10-17T02:59:13.655Z,22.89
2016-10-17T02:59:28.076Z,22.86
2016-10-17T02:59:42.383Z,22.86
2016-10-17T02:59:56.857Z,22.85
2016-10-17T03:00:11.285Z,22.84
2016-10-17T03:00:25.726Z,22.85
2016-10-17T03:00:40.082Z,22.84
2016-10-17T03:00:54.530Z,22.85
2016-10-17T03:01:09.026Z,22.86
2016-10-17T03:01:23.381Z,22.84
2016-10-17T03:01:37.703Z,22.84
2016-10-17T03:01:52.044Z,22.89
2016-10-17T03:02:06.383Z,22.82
2016-10-17T03:02:20.848Z,22.86
2016-10-17T03:02:35.262Z,22.84
2016-10-17T03:02:49.685Z,22.84
2016-10-17T03:03:04.081Z,22.78
2016-10-17T03:03:18.532Z,22.78
2016-10-17T03:03:33.002Z,22.82
2016-10-17T03:03:47.397Z,22.82
2016-10-17T03:04:01.881Z,22.79
2016-10-17T03:04:16.297Z,22.88
2016-10-17T03:04:31.054Z,22.82
2016-10-17T03:04:45.457Z,22.79
2016-10-17T03:04:59.873Z,22.84
2016-10-17T03:05:14.397Z,22.79
2016-10-17T03:05:28.780Z,22.81
2016-10-17T03:05:43.177Z,22.7
2016-10-17T03:05:57.614Z,22.85
2016-10-17T03:06:11.966Z,22.78